Time;durP1;ratioP1;P1;durP2;ratioP2;P2;SDS_P1;SDS_P2;PMS_P1;PMS_P2;Temp;Humidity;BMP_temperature;BMP_pressure;BME280_temperature;BME280_humidity;BME280_pressure;Samples;Min_cycle;Max_cycle;Signal;HPM_P1;HPM_P2
2023/07/18 00:01:20;;;;;;;31.17;29.08;;;;;;;25.01;100.00;100901.78;5066104;28;20049;-77
2023/07/18 00:03:46;;;;;;;32.88;30.20;;;;;;;25.07;100.00;100890.53;5063706;28;20059;-77
2023/07/18 00:06:17;;;;;;;37.72;35.30;;;;;;;25.31;100.00;100887.69;5067676;28;20120;-77
2023/07/18 00:08:44;;;;;;;40.45;37.97;;;;;;;25.21;100.00;100887.88;5060497;28;20102;-77
2023/07/18 00:11:37;;;;;;;35.65;33.33;;;;;;;25.26;100.00;100879.63;5060360;28;20514;-77
2023/07/18 00:14:24;;;;;;;37.95;35.45;;;;;;;25.25;100.00;100869.84;5043859;28;20053;-79
2023/07/18 00:16:51;;;;;;;36.72;34.28;;;;;;;25.17;100.00;100859.69;5063479;28;20044;-77
2023/07/18 00:19:19;;;;;;;38.53;35.80;;;;;;;25.22;100.00;100864.22;5066184;28;20041;-77
2023/07/18 00:21:49;;;;;;;36.75;34.08;;;;;;;25.22;100.00;100865.03;5064988;28;20056;-77
2023/07/18 00:24:16;;;;;;;42.85;40.15;;;;;;;25.17;100.00;100856.97;5062566;28;20049;-77
2023/07/18 00:26:44;;;;;;;40.28;37.70;;;;;;;25.07;100.00;100849.78;5064581;28;20052;-77
2023/07/18 00:29:11;;;;;;;36.33;33.92;;;;;;;25.12;100.00;100859.75;5062782;28;20045;-77
2023/07/18 00:31:38;;;;;;;35.20;32.83;;;;;;;25.08;100.00;100856.00;5063930;28;20049;-77
2023/07/18 00:34:06;;;;;;;32.72;30.35;;;;;;;25.04;100.00;100860.44;5064154;28;20053;-77
2023/07/18 00:36:33;;;;;;;35.88;33.53;;;;;;;25.08;100.00;100856.00;5063788;28;20049;-77
2023/07/18 00:39:07;;;;;;;37.88;35.28;;;;;;;25.04;100.00;100863.97;5067301;28;20056;-77
2023/07/18 00:41:39;;;;;;;65.07;61.30;;;;;;;25.04;100.00;100853.09;5065810;28;20087;-77
2023/07/18 00:44:09;;;;;;;37.80;35.50;;;;;;;24.92;100.00;100855.50;5059826;28;20510;-76
2023/07/18 00:46:37;;;;;;;37.92;35.13;;;;;;;24.91;100.00;100854.69;5061807;28;21307;-77
2023/07/18 00:49:06;;;;;;;33.78;31.17;;;;;;;24.96;100.00;100852.97;5064125;28;20052;-79
2023/07/18 00:51:50;;;;;;;32.22;30.02;;;;;;;24.98;100.00;100848.06;5058278;28;20526;-80
2023/07/18 00:54:23;;;;;;;32.03;29.60;;;;;;;24.79;100.00;100848.94;5064351;28;20052;-80
2023/07/18 00:56:50;;;;;;;35.22;32.40;;;;;;;24.85;100.00;100845.03;5065585;28;20045;-79
2023/07/18 00:59:27;;;;;;;36.38;33.95;;;;;;;24.81;100.00;100845.91;5063319;28;20060;-80
2023/07/18 01:01:54;;;;;;;41.53;38.88;;;;;;;24.71;100.00;100840.66;5061963;28;20045;-80
2023/07/18 01:04:21;;;;;;;45.22;42.35;;;;;;;24.80;100.00;100847.00;5066975;28;20056;-79
2023/07/18 01:06:49;;;;;;;38.08;35.47;;;;;;;24.76;100.00;100854.16;5064614;28;20047;-80
2023/07/18 01:09:16;;;;;;;40.15;37.55;;;;;;;24.64;100.00;100850.00;5061786;28;20105;-80
2023/07/18 01:11:44;;;;;;;37.53;35.10;;;;;;;24.59;100.00;100839.19;5060731;28;20069;-80
2023/07/18 01:14:30;;;;;;;32.67;30.23;;;;;;;24.61;100.00;100849.78;5066348;28;20041;-80
2023/07/18 01:16:56;;;;;;;33.35;30.95;;;;;;;24.53;100.00;100831.44;5060349;28;20061;-80
2023/07/18 01:19:24;;;;;;;37.90;35.40;;;;;;;24.20;100.00;100843.03;5063855;28;20123;-80
2023/07/18 01:21:54;;;;;;;35.55;33.05;;;;;;;24.26;100.00;100843.78;5065276;28;20478;-77
2023/07/18 01:24:22;;;;;;;44.35;41.42;;;;;;;24.37;100.00;100839.00;5061580;28;20045;-79
2023/07/18 01:26:51;;;;;;;38.53;35.72;;;;;;;24.45;100.00;100841.09;5061507;28;20047;-77
2023/07/18 01:29:17;;;;;;;44.90;42.10;;;;;;;24.53;100.00;100834.16;5061301;28;20053;-77
2023/07/18 01:31:45;;;;;;;34.63;32.13;;;;;;;24.33;100.00;100835.28;5065325;28;20086;-77
2023/07/18 01:34:14;;;;;;;40.50;37.65;;;;;;;23.94;100.00;100839.09;5061380;28;20107;-77
2023/07/18 01:36:41;;;;;;;38.15;35.28;;;;;;;24.01;100.00;100842.25;5067979;28;20044;-78
2023/07/18 01:39:09;;;;;;;35.25;32.75;;;;;;;24.09;100.00;100844.31;5063055;28;20141;-77
2023/07/18 01:41:43;;;;;;;34.35;32.05;;;;;;;24.12;100.00;100835.56;5066039;28;20447;-77
2023/07/18 01:44:08;;;;;;;35.85;33.33;;;;;;;23.87;100.00;100827.78;5060899;28;20080;-77
2023/07/18 01:46:45;;;;;;;40.40;37.75;;;;;;;24.15;100.00;100839.63;5058655;28;21026;-77
2023/07/18 01:49:12;;;;;;;35.63;33.08;;;;;;;24.05;100.00;100845.16;5062989;28;20045;-77
2023/07/18 01:51:54;;;;;;;37.45;35.22;;;;;;;23.20;100.00;100847.53;5058495;28;20052;-77
2023/07/18 01:54:32;;;;;;;32.72;30.33;;;;;;;23.12;100.00;100860.88;5060368;28;20041;-77
2023/07/18 01:56:59;;;;;;;35.38;32.63;;;;;;;23.45;100.00;100862.72;5061789;28;20555;-77
2023/07/18 01:59:38;;;;;;;34.38;32.08;;;;;;;22.93;100.00;100864.28;5060528;28;20493;-77
2023/07/18 02:02:06;;;;;;;43.35;40.55;;;;;;;22.84;100.00;100866.00;5060655;28;20127;-77
2023/07/18 02:04:33;;;;;;;45.28;42.53;;;;;;;22.90;100.00;100872.19;5061869;28;20060;-77
2023/07/18 02:07:00;;;;;;;44.35;41.53;;;;;;;22.92;100.00;100865.38;5060579;28;20476;-77
2023/07/18 02:09:27;;;;;;;39.42;37.03;;;;;;;23.35;100.00;100868.22;5063140;28;20428;-77
2023/07/18 02:11:56;;;;;;;41.95;39.35;;;;;;;23.16;100.00;100854.63;5064154;28;20523;-79
2023/07/18 02:14:23;;;;;;;50.75;47.95;;;;;;;23.11;100.00;100862.00;5067121;28;20040;-77
2023/07/18 02:16:51;;;;;;;44.50;41.83;;;;;;;23.21;100.00;100851.06;5059853;28;20512;-80
2023/07/18 02:19:18;;;;;;;49.70;46.50;;;;;;;23.17;100.00;100842.69;5062669;28;20052;-80
2023/07/18 02:21:47;;;;;;;42.20;39.78;;;;;;;23.11;100.00;100851.16;5064880;28;20051;-80
2023/07/18 02:24:14;;;;;;;38.55;36.15;;;;;;;22.84;100.00;100841.63;5057867;28;20045;-80
2023/07/18 02:26:42;;;;;;;40.08;37.53;;;;;;;22.57;100.00;100845.66;5061363;28;20051;-80
2023/07/18 02:29:10;;;;;;;51.63;48.63;;;;;;;23.04;100.00;100841.47;5059878;28;20511;-79
2023/07/18 02:31:37;;;;;;;63.95;60.63;;;;;;;23.23;100.00;100830.69;5063209;28;20041;-79
2023/07/18 02:34:04;;;;;;;70.18;66.57;;;;;;;23.11;100.00;100835.72;5062736;28;20132;-80
2023/07/18 02:36:39;;;;;;;74.00;70.18;;;;;;;22.95;100.00;100843.19;5067716;28;20114;-80
2023/07/18 02:39:10;;;;;;;78.70;74.90;;;;;;;23.09;100.00;100835.22;5063688;28;20049;-78
2023/07/18 02:41:49;;;;;;;54.72;51.83;;;;;;;23.21;100.00;100845.66;5061500;28;20063;-77
2023/07/18 02:44:46;;;;;;;53.13;50.20;;;;;;;23.17;100.00;100837.25;5058851;28;20049;-80
2023/07/18 02:47:13;;;;;;;88.00;83.47;;;;;;;22.58;100.00;100852.69;5064403;28;20535;-80
2023/07/18 02:49:54;;;;;;;67.68;63.75;;;;;;;22.56;100.00;100854.06;5061126;28;20106;-80
2023/07/18 02:52:47;;;;;;;73.10;69.15;;;;;;;22.87;100.00;100849.19;5061687;28;20571;-77
2023/07/18 02:55:24;;;;;;;44.30;41.60;;;;;;;22.29;100.00;100855.31;5057787;28;20542;-77
2023/07/18 02:57:53;;;;;;;36.58;33.90;;;;;;;22.89;100.00;100852.41;5057404;28;20048;-77
2023/07/18 03:00:39;;;;;;;32.33;29.75;;;;;;;22.30;100.00;100853.41;5059237;28;20057;-77
2023/07/18 03:03:18;;;;;;;30.83;28.65;;;;;;;22.95;100.00;100845.09;5060069;28;20090;-77
2023/07/18 03:05:48;;;;;;;33.42;31.13;;;;;;;23.02;100.00;100846.34;5060915;28;20409;-77
2023/07/18 03:08:15;;;;;;;28.85;26.63;;;;;;;22.16;100.00;100840.53;5059505;28;20068;-77
2023/07/18 03:10:42;;;;;;;31.10;28.83;;;;;;;22.11;100.00;100834.31;5062245;28;20056;-77
2023/07/18 03:13:09;;;;;;;31.77;29.45;;;;;;;22.33;100.00;100842.03;5057763;28;20106;-76
2023/07/18 03:15:36;;;;;;;27.35;25.35;;;;;;;22.50;100.00;100839.75;5062445;28;20064;-77
2023/07/18 03:18:05;;;;;;;30.13;27.58;;;;;;;22.24;100.00;100835.59;5061878;28;20045;-77
2023/07/18 03:20:32;;;;;;;26.13;23.83;;;;;;;22.74;100.00;100839.81;5059236;28;20048;-77
2023/07/18 03:22:59;;;;;;;27.95;25.80;;;;;;;22.83;100.00;100840.03;5059536;28;20045;-79
2023/07/18 03:25:26;;;;;;;26.70;24.67;;;;;;;22.75;100.00;100837.91;5063906;28;20424;-79
2023/07/18 03:27:54;;;;;;;29.65;27.38;;;;;;;22.84;100.00;100839.75;5062768;28;20041;-80
2023/07/18 03:30:34;;;;;;;27.88;25.25;;;;;;;23.08;100.00;100837.09;5064600;28;20051;-80
2023/07/18 03:33:01;;;;;;;28.20;25.77;;;;;;;23.03;100.00;100845.28;5059081;28;20080;-78
2023/07/18 03:35:29;;;;;;;27.23;25.13;;;;;;;23.06;100.00;100839.28;5065229;28;20053;-76
2023/07/18 03:37:56;;;;;;;29.15;26.83;;;;;;;23.20;100.00;100844.81;5064222;28;20048;-80
2023/07/18 03:40:23;;;;;;;30.63;28.27;;;;;;;23.49;100.00;100830.41;5062114;28;20053;-80
2023/07/18 03:42:50;;;;;;;28.48;26.38;;;;;;;23.55;100.00;100846.31;5066450;28;20049;-79
2023/07/18 03:45:25;;;;;;;30.60;28.27;;;;;;;23.59;100.00;100838.41;5065338;28;20409;-79
2023/07/18 03:47:52;;;;;;;29.40;27.17;;;;;;;23.67;100.00;100837.78;5065069;28;20052;-80
2023/07/18 03:50:38;;;;;;;30.35;28.10;;;;;;;23.80;100.00;100852.56;5066799;28;20055;-76
2023/07/18 03:53:12;;;;;;;29.83;27.58;;;;;;;23.82;100.00;100855.00;5059884;28;20048;-77
2023/07/18 03:55:39;;;;;;;26.20;24.27;;;;;;;23.72;100.00;100850.47;5064752;28;20047;-77
2023/07/18 03:58:16;;;;;;;27.48;25.38;;;;;;;23.71;100.00;100851.59;5065737;28;20051;-79
2023/07/18 04:00:49;;;;;;;29.15;26.65;;;;;;;23.64;100.00;100868.19;5068451;28;20889;-80
2023/07/18 04:03:16;;;;;;;31.95;29.75;;;;;;;23.85;100.00;100854.41;5061852;28;20048;-79
2023/07/18 04:05:51;;;;;;;29.83;27.70;;;;;;;23.85;100.00;100857.13;5065528;28;20052;-77
2023/07/18 04:08:18;;;;;;;28.55;26.27;;;;;;;23.95;100.00;100865.13;5063288;28;20049;-80
2023/07/18 04:10:45;;;;;;;32.50;29.48;;;;;;;23.89;100.00;100867.06;5064673;28;20496;-80
2023/07/18 04:13:12;;;;;;;26.30;24.30;;;;;;;23.87;100.00;100868.47;5059882;28;20497;-77
2023/07/18 04:15:38;;;;;;;28.88;26.80;;;;;;;23.95;100.00;100865.91;5065995;28;20056;-77
2023/07/18 04:18:09;;;;;;;25.05;22.88;;;;;;;24.02;100.00;100862.84;5061467;28;20045;-77
2023/07/18 04:20:36;;;;;;;25.63;23.63;;;;;;;24.10;100.00;100869.53;5060675;28;20052;-77
2023/07/18 04:23:22;;;;;;;26.92;24.52;;;;;;;24.14;100.00;100865.91;5062039;28;20064;-77
2023/07/18 04:25:58;;;;;;;25.48;23.35;;;;;;;24.10;100.00;100867.59;5059623;28;20048;-77
2023/07/18 04:28:27;;;;;;;25.98;23.30;;;;;;;23.95;100.00;100867.81;5064561;28;20048;-77
2023/07/18 04:30:54;;;;;;;24.75;22.67;;;;;;;24.05;100.00;100872.28;5063869;28;20041;-77
2023/07/18 04:33:21;;;;;;;26.58;24.25;;;;;;;24.26;100.00;100867.38;5062649;28;20075;-77
2023/07/18 04:35:47;;;;;;;26.58;24.20;;;;;;;24.52;100.00;100860.50;5065185;28;20055;-76
2023/07/18 04:38:14;;;;;;;25.63;23.42;;;;;;;24.55;100.00;100859.13;5061266;28;20719;-77
2023/07/18 04:40:51;;;;;;;25.92;23.83;;;;;;;24.47;100.00;100859.78;5062338;28;20072;-77
2023/07/18 04:43:25;;;;;;;27.08;24.65;;;;;;;24.70;100.00;100860.78;5058788;28;20053;-76
2023/07/18 04:46:05;;;;;;;24.70;22.52;;;;;;;24.67;100.00;100854.81;5061109;28;20063;-77
2023/07/18 04:48:51;;;;;;;26.98;24.60;;;;;;;24.85;100.00;100858.59;5066025;28;20048;-79
2023/07/18 04:51:18;;;;;;;25.77;23.58;;;;;;;24.87;100.00;100850.97;5048596;28;20123;-79
2023/07/18 04:53:45;;;;;;;25.52;23.52;;;;;;;25.05;100.00;100843.84;5042817;28;20045;-79
2023/07/18 04:56:13;;;;;;;25.30;23.20;;;;;;;25.24;100.00;100840.28;5040884;28;20045;-79
2023/07/18 04:58:40;;;;;;;27.58;25.13;;;;;;;25.35;100.00;100837.03;5043770;28;20057;-79
2023/07/18 05:01:08;;;;;;;27.60;25.50;;;;;;;25.45;100.00;100844.19;5043800;28;20052;-79
2023/07/18 05:03:35;;;;;;;25.23;23.20;;;;;;;25.46;100.00;100850.44;5046812;28;20053;-80
2023/07/18 05:06:02;;;;;;;26.67;24.48;;;;;;;25.52;100.00;100854.66;5046992;28;20045;-79
2023/07/18 05:08:30;;;;;;;29.08;26.85;;;;;;;25.69;100.00;100852.16;5044827;28;20520;-80
2023/07/18 05:11:21;;;;;;;30.70;28.48;;;;;;;25.88;100.00;100851.22;5045202;28;20432;-80
2023/07/18 05:13:57;;;;;;;27.35;24.83;;;;;;;25.96;100.00;100856.75;5044133;28;20036;-79
2023/07/18 05:16:34;;;;;;;27.48;24.52;;;;;;;26.06;100.00;100863.09;5040747;28;20052;-79
2023/07/18 05:19:01;;;;;;;36.10;27.05;;;;;;;26.28;100.00;100858.47;5047889;28;20048;-79
2023/07/18 05:21:47;;;;;;;41.22;28.73;;;;;;;26.38;100.00;100854.69;5047446;28;20509;-79
2023/07/18 05:24:24;;;;;;;32.40;26.55;;;;;;;26.52;100.00;100857.41;5039311;28;20068;-79
2023/07/18 05:27:06;;;;;;;28.55;25.35;;;;;;;26.46;100.00;100856.69;5041434;28;20528;-77
2023/07/18 05:29:37;;;;;;;33.67;26.10;;;;;;;26.59;100.00;100852.31;5047255;28;20646;-80
2023/07/18 05:32:05;;;;;;;29.80;26.90;;;;;;;26.73;100.00;100861.22;5040196;28;20055;-81
2023/07/18 05:34:50;;;;;;;31.58;28.50;;;;;;;26.94;100.00;100857.97;5038778;28;20047;-80
2023/07/18 05:37:17;;;;;;;30.75;28.05;;;;;;;27.09;100.00;100854.84;5041751;28;20053;-80
2023/07/18 05:39:44;;;;;;;30.45;27.50;;;;;;;27.31;100.00;100850.47;5042659;28;20053;-76
2023/07/18 05:42:19;;;;;;;32.63;29.83;;;;;;;27.55;100.00;100863.69;5047652;28;20044;-77
2023/07/18 05:44:52;;;;;;;33.58;30.48;;;;;;;27.66;100.00;100858.75;5042079;28;20045;-77
2023/07/18 05:47:19;;;;;;;34.95;31.67;;;;;;;28.02;100.00;100862.06;5047890;28;20056;-77
2023/07/18 05:49:58;;;;;;;36.33;33.10;;;;;;;28.23;100.00;100859.50;5043622;28;20049;-77
2023/07/18 05:52:30;;;;;;;35.47;32.20;;;;;;;28.11;100.00;100856.63;5039820;28;20045;-77
2023/07/18 05:54:57;;;;;;;36.35;32.75;;;;;;;28.25;100.00;100846.31;5044000;28;20064;-77
2023/07/18 05:57:25;;;;;;;38.20;34.45;;;;;;;28.62;100.00;100852.25;5041362;28;20753;-77
2023/07/18 06:00:06;;;;;;;37.03;33.60;;;;;;;28.72;100.00;100853.84;5045108;28;20053;-77
2023/07/18 06:02:41;;;;;;;36.72;33.38;;;;;;;28.63;100.00;100851.13;5043065;28;20053;-77
2023/07/18 06:05:19;;;;;;;37.45;33.92;;;;;;;28.98;100.00;100853.75;5043926;28;20041;-77
2023/07/18 06:07:46;;;;;;;38.75;35.35;;;;;;;29.00;100.00;100843.31;5042321;28;20137;-78
2023/07/18 06:10:33;;;;;;;37.88;34.10;;;;;;;29.03;100.00;100850.09;5046188;28;20045;-77
2023/07/18 06:13:07;;;;;;;38.22;34.72;;;;;;;28.98;100.00;100856.50;5038375;28;20437;-76
2023/07/18 06:15:34;;;;;;;40.50;36.90;;;;;;;28.96;100.00;100845.09;5042829;28;20119;-76
2023/07/18 06:18:25;;;;;;;40.35;36.65;;;;;;;29.37;100.00;100849.94;5039457;28;20048;-77
2023/07/18 06:20:52;;;;;;;39.67;36.15;;;;;;;29.27;100.00;100849.50;5041103;28;20048;-77
2023/07/18 06:23:19;;;;;;;42.25;38.30;;;;;;;29.64;100.00;100847.88;5040448;28;20052;-77
2023/07/18 06:25:54;;;;;;;41.90;38.30;;;;;;;29.58;100.00;100849.97;5042477;28;20048;-77
2023/07/18 06:28:28;;;;;;;37.85;34.15;;;;;;;29.80;100.00;100854.34;5039473;28;20042;-78
2023/07/18 06:30:57;;;;;;;38.72;34.88;;;;;;;29.59;100.00;100854.34;5043801;28;20045;-77
2023/07/18 06:33:24;;;;;;;37.00;33.22;;;;;;;29.95;100.00;100852.19;5041538;28;20051;-77
2023/07/18 06:35:54;;;;;;;34.78;31.42;;;;;;;29.97;100.00;100850.72;5043276;28;20064;-76
2023/07/18 06:38:24;;;;;;;34.85;31.60;;;;;;;30.03;100.00;100849.38;5038464;28;20049;-77
2023/07/18 06:40:51;;;;;;;35.00;31.60;;;;;;;29.98;100.00;100860.50;5043851;28;20492;-78
2023/07/18 06:43:18;;;;;;;35.08;31.52;;;;;;;29.74;100.00;100857.63;5047457;28;20049;-77
2023/07/18 06:45:47;;;;;;;34.78;31.20;;;;;;;29.94;100.00;100845.91;5049963;28;20045;-77
2023/07/18 06:48:14;;;;;;;37.38;34.22;;;;;;;30.08;100.00;100859.34;5050383;28;20053;-77
2023/07/18 06:50:45;;;;;;;40.17;36.22;;;;;;;29.83;100.00;100859.16;5049894;28;20049;-77
2023/07/18 06:53:17;;;;;;;38.95;35.00;;;;;;;29.93;100.00;100868.16;5050086;28;20061;-77
2023/07/18 06:55:43;;;;;;;37.13;33.35;;;;;;;29.87;100.00;100867.53;5050699;28;20144;-77
2023/07/18 06:58:30;;;;;;;38.10;33.63;;;;;;;29.97;100.00;100874.56;5049683;28;20049;-77
2023/07/18 07:00:58;;;;;;;37.88;33.95;;;;;;;29.51;100.00;100868.84;5049679;28;20712;-76
2023/07/18 07:03:25;;;;;;;37.83;33.80;;;;;;;30.15;100.00;100870.53;5049789;28;20524;-76
2023/07/18 07:05:53;;;;;;;40.33;36.45;;;;;;;30.05;100.00;100881.91;5052399;28;20044;-77
2023/07/18 07:08:22;;;;;;;42.97;38.38;;;;;;;29.92;100.00;100877.47;5054312;28;20053;-77
2023/07/18 07:10:49;;;;;;;39.65;35.75;;;;;;;29.98;100.00;100876.16;5054133;28;20053;-77
2023/07/18 07:13:16;;;;;;;42.63;38.40;;;;;;;30.23;100.00;100877.09;5050939;28;20056;-77
2023/07/18 07:15:43;;;;;;;41.95;37.17;;;;;;;30.01;100.00;100879.00;5043098;28;20049;-78
2023/07/18 07:18:11;;;;;;;41.78;37.70;;;;;;;30.42;100.00;100879.38;5053856;28;20440;-77
2023/07/18 07:20:38;;;;;;;42.22;38.15;;;;;;;30.25;100.00;100878.38;5053896;28;20501;-77
2023/07/18 07:23:05;;;;;;;41.55;37.15;;;;;;;30.74;100.00;100875.84;5053417;28;20045;-77
2023/07/18 07:25:32;;;;;;;40.92;37.13;;;;;;;30.58;100.00;100874.84;5053954;28;20057;-77
2023/07/18 07:28:01;;;;;;;40.55;36.75;;;;;;;30.36;100.00;100878.78;5053520;28;20076;-78
2023/07/18 07:30:28;;;;;;;42.28;38.15;;;;;;;30.02;100.00;100877.91;5053739;28;20056;-78
2023/07/18 07:32:55;;;;;;;39.75;36.15;;;;;;;30.52;100.00;100868.78;5053817;28;20056;-78
2023/07/18 07:35:23;;;;;;;39.17;35.42;;;;;;;30.78;100.00;100874.03;5053836;28;20421;-78
2023/07/18 07:38:00;;;;;;;38.92;35.50;;;;;;;31.04;100.00;100867.44;5053869;28;20428;-78
2023/07/18 07:40:29;;;;;;;40.22;36.63;;;;;;;31.28;100.00;100872.16;5053802;28;20426;-79
2023/07/18 07:42:56;;;;;;;40.85;36.83;;;;;;;31.16;100.00;100874.91;5053529;28;20053;-78
2023/07/18 07:45:23;;;;;;;39.05;35.22;;;;;;;31.00;100.00;100867.34;5052955;28;20041;-77
2023/07/18 07:47:50;;;;;;;40.05;36.28;;;;;;;31.44;100.00;100864.91;5053525;28;20049;-77
2023/07/18 07:50:17;;;;;;;38.78;35.30;;;;;;;30.76;100.00;100867.25;5053411;28;20056;-77
2023/07/18 07:52:49;;;;;;;41.25;37.75;;;;;;;31.47;100.00;100868.91;5053543;28;20052;-77
2023/07/18 07:55:16;;;;;;;39.25;35.42;;;;;;;31.62;100.00;100870.94;5053302;28;20055;-77
2023/07/18 07:57:43;;;;;;;35.45;32.10;;;;;;;31.74;100.00;100859.13;5053412;28;20068;-77
2023/07/18 08:00:19;;;;;;;41.55;37.85;;;;;;;31.78;100.00;100867.47;5052736;28;20052;-77
2023/07/18 08:02:58;;;;;;;40.20;36.88;;;;;;;31.97;100.00;100861.41;5053572;28;20503;-77
2023/07/18 08:05:25;;;;;;;37.97;34.28;;;;;;;31.74;100.00;100866.56;5053073;28;20056;-79
2023/07/18 08:07:53;;;;;;;37.85;34.28;;;;;;;31.94;100.00;100865.63;5052837;28;20413;-78
2023/07/18 08:10:22;;;;;;;38.08;34.50;;;;;;;32.04;100.00;100861.59;5052352;28;20051;-79
2023/07/18 08:12:49;;;;;;;37.63;34.08;;;;;;;32.18;100.00;100867.50;5052740;28;20040;-77
2023/07/18 08:15:16;;;;;;;39.55;35.88;;;;;;;32.36;100.00;100865.28;5041844;28;20136;-79
2023/07/18 08:17:43;;;;;;;37.60;34.20;;;;;;;32.37;100.00;100864.91;5040100;28;20053;-79
2023/07/18 08:20:14;;;;;;;38.47;35.13;;;;;;;32.32;100.00;100865.19;5052938;28;20440;-79
2023/07/18 08:23:07;;;;;;;37.38;33.83;;;;;;;32.78;100.00;100862.09;5053005;28;20110;-79
2023/07/18 08:25:35;;;;;;;39.55;36.15;;;;;;;33.02;100.00;100856.47;5038250;28;20049;-79
2023/07/18 08:28:02;;;;;;;41.58;38.05;;;;;;;32.67;100.00;100850.03;5052615;28;20131;-79
2023/07/18 08:30:29;;;;;;;41.22;37.63;;;;;;;32.84;100.00;100847.75;5052479;28;20045;-79
2023/07/18 08:32:56;;;;;;;38.35;35.35;;;;;;;32.07;100.00;100849.91;5052917;28;20052;-79
2023/07/18 08:35:23;;;;;;;38.67;35.60;;;;;;;32.35;100.00;100858.19;5052844;28;20051;-79
2023/07/18 08:37:49;;;;;;;39.72;36.17;;;;;;;33.42;100.00;100855.47;5052601;28;20049;-79
2023/07/18 08:40:18;;;;;;;37.75;34.15;;;;;;;32.56;100.00;100858.00;5052285;28;20045;-78
2023/07/18 08:42:45;;;;;;;38.65;35.83;;;;;;;32.79;100.00;100848.00;5052548;28;20045;-79
2023/07/18 08:45:14;;;;;;;38.17;35.05;;;;;;;33.26;100.00;100857.44;5048408;28;20136;-77
2023/07/18 08:47:56;;;;;;;35.05;31.90;;;;;;;33.38;100.00;100851.03;5035056;28;20053;-77
2023/07/18 08:50:26;;;;;;;38.90;35.60;;;;;;;33.20;100.00;100851.41;5051663;28;20128;-77
2023/07/18 08:52:53;;;;;;;42.92;39.35;;;;;;;32.37;100.00;100853.13;5052681;28;20053;-77
2023/07/18 08:55:36;;;;;;;42.03;38.78;;;;;;;32.96;100.00;100854.31;5052551;28;20049;-77
2023/07/18 08:58:04;;;;;;;43.10;39.63;;;;;;;33.19;100.00;100847.03;5052112;28;20048;-77
2023/07/18 09:00:30;;;;;;;46.00;42.17;;;;;;;33.14;100.00;100850.09;5051913;28;20053;-77
2023/07/18 09:02:57;;;;;;;44.85;41.13;;;;;;;33.05;100.00;100850.25;5051671;28;20516;-76
2023/07/18 09:05:46;;;;;;;43.70;40.25;;;;;;;32.96;100.00;100843.31;5051973;28;20725;-77
2023/07/18 09:08:22;;;;;;;45.83;42.00;;;;;;;33.18;100.00;100845.44;5052296;28;20524;-76
2023/07/18 09:11:20;;;;;;;44.90;41.38;;;;;;;33.65;100.00;100844.59;5051757;28;20052;-77
2023/07/18 09:14:05;;;;;;;47.42;43.15;;;;;;;34.13;100.00;100845.25;5051920;28;20045;-79
2023/07/18 09:16:36;;;;;;;42.28;38.40;;;;;;;33.21;100.00;100839.25;5040621;28;20460;-77
2023/07/18 09:19:03;;;;;;;44.17;40.65;;;;;;;33.33;100.00;100840.28;5039792;28;20057;-79
2023/07/18 09:21:32;;;;;;;42.80;38.90;;;;;;;33.37;100.00;100838.41;5042396;28;20048;-79
2023/07/18 09:24:06;;;;;;;41.85;37.50;;;;;;;33.52;100.00;100832.09;5051736;28;20052;-79
2023/07/18 09:26:34;;;;;;;42.60;38.83;;;;;;;34.45;100.00;100834.03;5051794;28;20455;-79
2023/07/18 09:29:01;;;;;;;42.10;38.47;;;;;;;34.29;100.00;100833.34;5051734;28;20049;-80
2023/07/18 09:31:28;;;;;;;41.85;37.95;;;;;;;33.52;100.00;100835.66;5051614;28;20053;-79
2023/07/18 09:34:18;;;;;;;40.25;36.85;;;;;;;34.46;100.00;100832.06;5051143;28;20135;-79
2023/07/18 09:36:55;;;;;;;42.53;38.90;;;;;;;33.95;100.00;100828.34;5050379;28;20049;-79
2023/07/18 09:39:24;;;;;;;39.45;36.03;;;;;;;34.46;100.00;100832.88;5051361;28;20060;-79
2023/07/18 09:42:16;;;;;;;39.63;35.78;;;;;;;34.12;100.00;100818.84;5051127;28;20045;-79
2023/07/18 09:44:51;;;;;;;38.00;34.65;;;;;;;34.37;100.00;100824.81;5034073;28;20092;-77
2023/07/18 09:47:21;;;;;;;36.38;33.25;;;;;;;35.41;100.00;100812.81;5051167;28;20128;-77
2023/07/18 09:49:48;;;;;;;35.90;32.50;;;;;;;35.26;100.00;100813.78;5043475;28;20041;-78
2023/07/18 09:52:23;;;;;;;35.83;32.60;;;;;;;34.51;100.00;100810.53;5050980;28;20053;-77
2023/07/18 09:54:53;;;;;;;35.92;32.72;;;;;;;35.01;100.00;100796.78;5051123;28;20050;-77
2023/07/18 09:57:23;;;;;;;35.58;32.28;;;;;;;34.95;100.00;100799.09;5051414;28;20080;-77
2023/07/18 09:59:51;;;;;;;35.55;32.38;;;;;;;34.38;100.00;100804.38;5051034;28;20504;-77
2023/07/18 10:02:21;;;;;;;34.85;31.95;;;;;;;35.27;100.00;100791.31;5050972;28;20052;-77
2023/07/18 10:05:03;;;;;;;36.13;32.47;;;;;;;35.08;100.00;100788.66;5051094;28;20496;-77
2023/07/18 10:07:40;;;;;;;;;;;;;;;36.20;100.00;100784.22;5034089;28;20048;-78
2023/07/18 10:10:09;;;;;;;34.47;31.58;;;;;;;35.60;100.00;100780.75;5050843;28;19922;-79
2023/07/18 10:13:01;;;;;;;35.03;31.98;;;;;;;35.14;100.00;100784.41;5045223;28;20057;-79
2023/07/18 10:16:11;;;;;;;34.37;31.23;;;;;;;35.19;100.00;100778.59;5037448;28;20045;-79
2023/07/18 10:18:45;;;;;;;35.60;32.17;;;;;;;35.03;100.00;100767.66;5050345;28;20052;-79
2023/07/18 10:21:27;;;;;;;33.72;31.00;;;;;;;34.67;100.00;100780.09;5044983;28;20139;-76
2023/07/18 10:23:54;;;;;;;32.05;29.33;;;;;;;34.18;100.00;100781.56;5043373;28;20095;-78
2023/07/18 10:26:31;;;;;;;30.77;27.95;;;;;;;35.33;100.00;100775.22;5045747;28;20492;-77
2023/07/18 10:29:04;;;;;;;32.83;29.83;;;;;;;35.50;100.00;100773.88;5051205;28;20492;-77
2023/07/18 10:31:46;;;;;;;32.80;29.88;;;;;;;36.68;100.00;100772.47;5044286;28;20524;-78
2023/07/18 10:34:16;;;;;;;31.83;29.00;;;;;;;36.28;100.00;100773.25;5038912;28;20475;-77
2023/07/18 10:36:56;;;;;;;30.13;27.52;;;;;;;36.69;100.00;100769.28;5050315;28;20144;-77
2023/07/18 10:39:55;;;;;;;29.35;26.95;;;;;;;35.51;100.00;100761.66;5051092;28;20041;-78
2023/07/18 10:42:24;;;;;;;29.23;26.60;;;;;;;34.86;100.00;100776.47;5054348;28;20047;-77
2023/07/18 10:44:56;;;;;;;29.42;26.73;;;;;;;34.35;100.00;100774.00;5054196;28;20079;-77
2023/07/18 10:47:27;;;;;;;29.40;26.70;;;;;;;36.31;100.00;100764.19;5054907;28;20104;-77
2023/07/18 10:49:54;;;;;;;28.50;25.80;;;;;;;35.09;100.00;100763.44;5054674;28;20060;-77
2023/07/18 10:52:34;;;;;;;29.90;27.23;;;;;;;35.51;100.00;100762.44;5045289;28;20052;-79
2023/07/18 10:55:04;;;;;;;31.27;28.52;;;;;;;36.33;100.00;100765.41;5051655;28;20049;-80
2023/07/18 10:57:33;;;;;;;29.92;26.85;;;;;;;35.05;100.00;100757.09;5054221;28;20044;-79
2023/07/18 11:00:05;;;;;;;31.17;28.67;;;;;;;33.98;100.00;100768.94;5052033;28;20474;-78
2023/07/18 11:02:50;;;;;;;30.30;27.35;;;;;;;35.47;100.00;100750.56;5054195;28;20465;-79
2023/07/18 11:05:26;;;;;;;31.01;28.36;;;;;;;35.75;96.09;100754.88;4973131;28;10000869;-79
2023/07/18 11:07:55;;;;;;;30.77;27.90;;;;;;;35.35;100.00;100755.53;4992962;28;20289;-79
2023/07/18 11:10:22;;;;;;;32.47;29.38;;;;;;;37.29;88.45;100740.47;5047166;28;20053;-80
2023/07/18 11:12:52;;;;;;;31.95;28.85;;;;;;;36.71;96.05;100749.56;5045363;28;20058;-79
2023/07/18 11:15:21;;;;;;;32.35;29.15;;;;;;;34.73;100.00;100739.22;5048136;28;20045;-79
2023/07/18 11:17:48;;;;;;;32.17;29.13;;;;;;;36.57;96.64;100741.16;5046826;28;20041;-79
2023/07/18 11:20:20;;;;;;;30.85;28.08;;;;;;;35.09;100.00;100746.09;5046594;28;20068;-79
2023/07/18 11:22:49;;;;;;;32.03;29.30;;;;;;;34.93;100.00;100735.19;5052157;28;20064;-80